createdAt,value
2017-10-29T00:01:11.157Z,98.05
2017-10-29T00:03:39.437Z,97.82
2017-10-29T00:06:07.722Z,97.92
2017-10-29T00:08:36.003Z,97.33
2017-10-29T00:11:04.288Z,97.40
2017-10-29T00:13:32.578Z,97.67
2017-10-29T00:16:00.865Z,97.94
2017-10-29T00:18:29.158Z,97.80
2017-10-29T00:20:57.453Z,98.01
2017-10-29T00:23:25.732Z,97.63
2017-10-29T00:25:54.113Z,96.82
2017-10-29T00:28:22.388Z,97.58
2017-10-29T00:30:50.664Z,98.02
2017-10-29T00:33:18.944Z,97.74
2017-10-29T00:35:47.237Z,97.29
2017-10-29T00:38:15.581Z,97.45
2017-10-29T00:40:43.904Z,97.72
2017-10-29T00:43:12.186Z,97.37
2017-10-29T00:45:40.515Z,96.74
2017-10-29T00:48:08.798Z,97.03
2017-10-29T00:50:37.076Z,96.82
2017-10-29T00:53:05.352Z,97.61
2017-10-29T00:55:33.641Z,98.15
2017-10-29T00:58:01.928Z,98.32
2017-10-29T01:00:30.247Z,97.01
2017-10-29T01:02:58.537Z,97.05
2017-10-29T01:05:26.824Z,98.66
2017-10-29T01:07:55.105Z,98.24
2017-10-29T01:10:23.383Z,98.05
2017-10-29T01:12:51.661Z,97.49
2017-10-29T01:15:19.941Z,95.77
2017-10-29T01:17:48.224Z,96.47
2017-10-29T01:20:16.517Z,96.55
2017-10-29T01:22:44.802Z,96.32
2017-10-29T01:25:13.123Z,96.11
2017-10-29T01:27:41.394Z,95.05
2017-10-29T01:30:09.678Z,94.56
2017-10-29T01:32:37.957Z,96.93
2017-10-29T01:35:06.245Z,96.38
2017-10-29T01:37:34.524Z,96.84
2017-10-29T01:40:03.030Z,97.68
2017-10-29T01:42:31.306Z,97.31
2017-10-29T01:44:59.598Z,97.26
2017-10-29T01:47:27.872Z,97.84
2017-10-29T01:49:56.152Z,98.25
2017-10-29T01:52:24.461Z,97.87
2017-10-29T01:54:53.501Z,97.38
2017-10-29T01:57:21.796Z,97.32
2017-10-29T01:59:50.079Z,97.07
2017-10-29T02:02:18.370Z,97.35
2017-10-29T02:04:46.648Z,97.36
2017-10-29T02:07:15.712Z,97.43
2017-10-29T02:09:44.004Z,97.51
2017-10-29T02:12:12.285Z,96.77
2017-10-29T02:14:40.581Z,96.60
2017-10-29T02:17:08.865Z,97.03
2017-10-29T02:19:37.909Z,96.14
2017-10-29T02:22:06.209Z,96.73
2017-10-29T02:24:35.473Z,96.20
2017-10-29T02:27:03.752Z,97.36
2017-10-29T02:29:32.049Z,95.53
2017-10-29T02:32:00.328Z,96.29
2017-10-29T02:34:29.181Z,95.58
2017-10-29T02:36:57.455Z,95.62
2017-10-29T02:39:25.748Z,95.70
2017-10-29T02:41:54.049Z,96.26
2017-10-29T02:44:22.344Z,96.60
2017-10-29T02:46:51.438Z,96.70
2017-10-29T02:49:19.721Z,96.61
2017-10-29T02:51:48.768Z,96.50
2017-10-29T02:54:17.046Z,97.27
2017-10-29T02:56:46.079Z,96.00
2017-10-29T02:59:14.368Z,96.59
2017-10-29T03:01:43.416Z,96.60
2017-10-29T03:04:11.709Z,95.74
2017-10-29T03:06:39.999Z,94.17
2017-10-29T03:09:08.281Z,94.95
2017-10-29T03:11:36.546Z,94.84
2017-10-29T03:14:05.601Z,94.81
2017-10-29T03:16:33.884Z,95.33
2017-10-29T03:19:02.168Z,96.18
2017-10-29T03:21:30.448Z,97.49
2017-10-29T03:23:58.732Z,97.67
2017-10-29T03:26:27.021Z,97.21
2017-10-29T03:28:55.329Z,96.35
2017-10-29T03:31:23.605Z,95.73
2017-10-29T03:33:51.901Z,96.68
2017-10-29T03:36:20.180Z,94.60
2017-10-29T03:38:48.464Z,94.45
2017-10-29T03:41:16.745Z,92.05
2017-10-29T03:43:45.029Z,92.00
2017-10-29T03:46:13.320Z,91.99
2017-10-29T03:48:41.600Z,89.48
2017-10-29T03:51:09.895Z,89.43
2017-10-29T03:53:38.185Z,89.37
2017-10-29T03:56:06.502Z,87.61
2017-10-29T03:58:34.793Z,89.22
2017-10-29T04:01:03.088Z,87.74
2017-10-29T04:03:31.377Z,88.07
2017-10-29T04:05:59.656Z,88.35
2017-10-29T04:08:28.700Z,87.49
2017-10-29T04:10:56.990Z,90.34
2017-10-29T04:13:25.294Z,90.26
2017-10-29T04:15:54.351Z,91.64
2017-10-29T04:18:22.649Z,94.50
2017-10-29T04:20:50.941Z,95.19
2017-10-29T04:23:19.226Z,97.19
2017-10-29T04:25:48.277Z,98.53
2017-10-29T04:28:16.568Z,99.22
2017-10-29T04:30:44.865Z,97.57
2017-10-29T04:33:13.177Z,97.29
2017-10-29T04:35:41.469Z,96.39
2017-10-29T04:38:10.761Z,96.88
2017-10-29T04:40:39.040Z,96.80
2017-10-29T04:43:07.316Z,97.16
2017-10-29T04:45:35.587Z,96.08
2017-10-29T04:48:03.867Z,94.84
2017-10-29T04:50:32.156Z,95.18
2017-10-29T04:53:00.437Z,95.18
2017-10-29T04:55:28.721Z,95.64
2017-10-29T04:57:57.009Z,94.41
2017-10-29T05:00:25.309Z,93.82
2017-10-29T05:02:53.600Z,95.38
2017-10-29T05:05:22.645Z,95.88
2017-10-29T05:07:50.928Z,95.98
2017-10-29T05:10:19.222Z,97.00
2017-10-29T05:12:47.514Z,95.75
2017-10-29T05:15:15.800Z,96.78
2017-10-29T05:17:44.876Z,95.83
2017-10-29T05:20:13.157Z,93.19
2017-10-29T05:22:42.212Z,91.03
2017-10-29T05:25:10.488Z,89.32
2017-10-29T05:27:38.771Z,87.97
2017-10-29T05:30:07.053Z,88.73
2017-10-29T05:32:35.331Z,89.26
2017-10-29T05:35:03.616Z,85.84
2017-10-29T05:37:31.898Z,84.46
2017-10-29T05:40:00.180Z,85.75
2017-10-29T05:42:29.229Z,85.87
2017-10-29T05:44:57.508Z,86.04
2017-10-29T05:47:25.803Z,86.03
2017-10-29T05:49:54.095Z,86.63
2017-10-29T05:52:22.380Z,86.40
2017-10-29T05:54:51.429Z,85.78
2017-10-29T05:57:19.712Z,85.68
2017-10-29T05:59:47.991Z,84.38
2017-10-29T06:02:16.271Z,84.17
2017-10-29T06:04:44.567Z,84.16
2017-10-29T06:07:12.856Z,86.01
2017-10-29T06:09:41.148Z,87.60
2017-10-29T06:12:09.432Z,91.37
2017-10-29T06:14:37.727Z,92.99
2017-10-29T06:17:06.016Z,94.36
2017-10-29T06:19:34.303Z,92.16
2017-10-29T06:22:03.445Z,92.95
2017-10-29T06:24:31.720Z,95.00
2017-10-29T06:27:00.010Z,90.66
2017-10-29T06:29:28.287Z,92.45
2017-10-29T06:31:56.577Z,91.86
2017-10-29T06:34:24.861Z,91.20
2017-10-29T06:36:53.148Z,90.74
2017-10-29T06:39:21.428Z,89.31
2017-10-29T06:41:49.705Z,89.43
2017-10-29T06:44:17.992Z,88.13
2017-10-29T06:46:47.424Z,86.24
2017-10-29T06:49:16.454Z,85.80
2017-10-29T06:51:44.726Z,87.94
2017-10-29T06:54:12.984Z,89.67
2017-10-29T06:56:43.515Z,91.23
2017-10-29T06:59:11.790Z,92.50
2017-10-29T07:01:40.085Z,91.14
2017-10-29T07:04:08.366Z,92.32
2017-10-29T07:06:36.648Z,94.17
2017-10-29T07:09:04.928Z,92.72
2017-10-29T07:11:33.201Z,92.86
2017-10-29T07:14:01.470Z,90.59
2017-10-29T07:16:29.755Z,85.99
2017-10-29T07:18:58.021Z,85.56
2017-10-29T07:21:26.301Z,84.48
2017-10-29T07:23:54.592Z,82.59
2017-10-29T07:26:22.872Z,80.00
2017-10-29T07:28:51.151Z,80.60
2017-10-29T07:31:19.436Z,80.13
2017-10-29T07:33:47.709Z,79.05
2017-10-29T07:36:15.992Z,79.62
2017-10-29T07:38:44.273Z,80.27
2017-10-29T07:41:12.593Z,80.33
2017-10-29T07:43:40.882Z,79.92
2017-10-29T07:46:09.189Z,79.75
2017-10-29T07:48:37.496Z,80.67
2017-10-29T07:51:05.777Z,79.93
2017-10-29T07:53:34.824Z,75.70
2017-10-29T07:56:03.115Z,77.17
2017-10-29T07:58:31.411Z,75.34
2017-10-29T08:00:59.696Z,75.57
2017-10-29T08:03:27.980Z,75.07
2017-10-29T08:05:56.302Z,75.79
2017-10-29T08:08:24.576Z,74.96
2017-10-29T08:10:52.852Z,75.02
2017-10-29T08:13:21.182Z,74.91
2017-10-29T08:15:49.461Z,75.14
2017-10-29T08:18:17.753Z,74.38
2017-10-29T08:20:46.812Z,75.31
2017-10-29T08:23:15.088Z,76.92
2017-10-29T08:25:43.372Z,77.29
2017-10-29T08:28:11.668Z,76.42
2017-10-29T08:30:39.972Z,77.45
2017-10-29T08:33:09.218Z,77.77
2017-10-29T08:35:37.492Z,77.79
2017-10-29T08:38:05.781Z,76.34
2017-10-29T08:40:34.057Z,76.08
2017-10-29T08:43:02.331Z,75.58
2017-10-29T08:45:30.610Z,76.29
2017-10-29T08:47:58.894Z,76.47
2017-10-29T08:50:27.176Z,75.20
2017-10-29T08:52:55.470Z,73.98
2017-10-29T08:55:23.739Z,75.04
2017-10-29T08:57:52.028Z,74.33
2017-10-29T09:00:20.302Z,74.52
2017-10-29T09:02:48.593Z,76.46
2017-10-29T09:05:17.334Z,76.11
2017-10-29T09:07:45.614Z,75.18
2017-10-29T09:10:13.883Z,75.42
2017-10-29T09:12:42.171Z,75.40
2017-10-29T09:15:11.208Z,73.69
2017-10-29T09:17:39.484Z,73.02
2017-10-29T09:20:07.766Z,72.99
2017-10-29T09:22:36.049Z,71.97
2017-10-29T09:25:04.333Z,71.46
2017-10-29T09:27:32.639Z,71.54
2017-10-29T09:30:01.693Z,71.63
2017-10-29T09:32:29.988Z,71.49
2017-10-29T09:34:58.380Z,71.36
2017-10-29T09:37:26.669Z,71.84
2017-10-29T09:39:55.740Z,72.12
2017-10-29T09:42:24.071Z,72.72
2017-10-29T09:44:52.384Z,71.92
2017-10-29T09:47:20.681Z,71.91
2017-10-29T09:49:49.316Z,72.23
2017-10-29T09:52:17.713Z,72.05
2017-10-29T09:54:46.360Z,71.08
2017-10-29T09:57:14.650Z,70.71
2017-10-29T09:59:42.956Z,70.21
2017-10-29T10:02:11.246Z,71.66
2017-10-29T10:04:39.522Z,69.87
2017-10-29T10:07:07.837Z,70.48
2017-10-29T10:09:36.887Z,70.42
2017-10-29T10:12:05.188Z,70.44
2017-10-29T10:14:33.495Z,70.25
2017-10-29T10:17:01.789Z,69.13
2017-10-29T10:19:30.120Z,69.86
2017-10-29T10:21:58.423Z,70.02
2017-10-29T10:24:26.737Z,69.55
2017-10-29T10:26:55.069Z,69.27
2017-10-29T10:29:24.147Z,68.90
2017-10-29T10:31:52.459Z,69.27
2017-10-29T10:34:20.771Z,67.32
2017-10-29T10:36:49.091Z,67.85
2017-10-29T10:39:18.157Z,67.36
2017-10-29T10:41:46.492Z,67.37
2017-10-29T10:44:14.847Z,68.09
2017-10-29T10:46:43.132Z,68.50
2017-10-29T10:49:11.420Z,69.09
2017-10-29T10:51:39.696Z,68.45
2017-10-29T10:54:07.972Z,69.38
2017-10-29T10:56:36.976Z,69.48
2017-10-29T10:59:05.359Z,70.63
2017-10-29T11:01:33.681Z,70.15
2017-10-29T11:04:02.728Z,70.28
2017-10-29T11:06:32.029Z,69.19
2017-10-29T11:09:00.356Z,69.58
2017-10-29T11:11:29.682Z,67.93
2017-10-29T11:13:58.024Z,69.03
2017-10-29T11:16:26.396Z,67.12
2017-10-29T11:18:54.750Z,65.18
2017-10-29T11:21:23.069Z,66.60
2017-10-29T11:23:51.397Z,65.60
2017-10-29T11:26:19.725Z,64.27
2017-10-29T11:28:48.092Z,65.11
2017-10-29T11:31:16.398Z,63.75
2017-10-29T11:33:44.777Z,63.17
2017-10-29T11:36:13.155Z,64.15
2017-10-29T11:38:41.588Z,63.90
2017-10-29T11:41:10.034Z,64.54
2017-10-29T11:43:38.597Z,63.31
2017-10-29T11:46:07.811Z,63.29
2017-10-29T11:48:36.174Z,63.62
2017-10-29T11:51:04.506Z,64.10
2017-10-29T11:53:34.209Z,64.60
2017-10-29T11:56:02.525Z,65.53
2017-10-29T11:58:31.202Z,65.94
2017-10-29T12:00:59.729Z,66.47
2017-10-29T12:03:28.109Z,65.10
2017-10-29T12:05:56.542Z,64.81
2017-10-29T12:08:24.929Z,65.44
2017-10-29T12:10:53.405Z,67.35
2017-10-29T12:13:21.913Z,68.89
2017-10-29T12:15:50.209Z,69.31
2017-10-29T12:18:18.886Z,67.03
2017-10-29T12:20:47.314Z,66.41
2017-10-29T12:23:15.759Z,66.97
2017-10-29T12:25:44.133Z,66.82
2017-10-29T12:28:12.540Z,66.21
2017-10-29T12:30:40.954Z,65.87
2017-10-29T12:33:09.375Z,64.55
2017-10-29T12:35:37.705Z,63.70
2017-10-29T12:38:07.356Z,63.78
2017-10-29T12:40:35.639Z,63.89
2017-10-29T12:43:04.031Z,63.45
2017-10-29T12:45:32.617Z,62.42
2017-10-29T12:48:01.928Z,60.58
2017-10-29T12:50:30.469Z,61.97
2017-10-29T12:52:58.879Z,62.54
2017-10-29T12:55:27.209Z,62.27
2017-10-29T12:57:55.825Z,60.66
2017-10-29T13:00:24.218Z,61.15
2017-10-29T13:02:52.678Z,62.54
2017-10-29T13:05:21.012Z,65.15
2017-10-29T13:07:49.439Z,73.40
2017-10-29T13:10:17.837Z,78.04
2017-10-29T13:12:46.269Z,80.53
2017-10-29T13:15:14.892Z,84.04
2017-10-29T13:17:43.375Z,80.08
2017-10-29T13:20:11.801Z,81.07
2017-10-29T13:22:40.917Z,78.99
2017-10-29T13:25:09.420Z,79.63
2017-10-29T13:27:37.866Z,76.20
2017-10-29T13:30:06.157Z,75.70
2017-10-29T13:32:34.679Z,75.78
2017-10-29T13:35:03.026Z,75.28
2017-10-29T13:37:31.324Z,73.50
2017-10-29T13:39:59.640Z,74.19
2017-10-29T13:42:27.947Z,72.41
2017-10-29T13:44:56.292Z,72.77
2017-10-29T13:47:24.593Z,71.75
2017-10-29T13:49:52.901Z,70.76
2017-10-29T13:52:21.188Z,70.25
2017-10-29T13:54:49.472Z,69.91
2017-10-29T13:57:18.330Z,68.37
2017-10-29T13:59:46.618Z,67.56
2017-10-29T14:02:14.935Z,67.72
2017-10-29T14:04:43.211Z,66.73
2017-10-29T14:07:11.482Z,66.65
2017-10-29T14:09:39.779Z,67.23
2017-10-29T14:12:08.942Z,67.27
2017-10-29T14:14:37.215Z,67.36
2017-10-29T14:17:05.492Z,67.56
2017-10-29T14:19:33.802Z,68.24
2017-10-29T14:22:04.924Z,68.06
2017-10-29T14:24:33.209Z,66.94
2017-10-29T14:27:01.496Z,65.38
2017-10-29T14:29:29.797Z,61.64
2017-10-29T14:31:58.089Z,61.75
2017-10-29T14:34:26.373Z,60.54
2017-10-29T14:36:54.669Z,64.81
2017-10-29T14:39:22.946Z,65.90
2017-10-29T14:41:51.255Z,63.47
2017-10-29T14:44:19.546Z,62.57
2017-10-29T14:46:47.841Z,59.92
2017-10-29T14:49:16.128Z,60.56
2017-10-29T14:51:44.409Z,62.81
2017-10-29T14:54:12.697Z,64.97
2017-10-29T14:56:41.887Z,64.71
2017-10-29T14:59:13.091Z,66.26
2017-10-29T15:01:41.371Z,67.59
2017-10-29T15:04:09.672Z,67.93
2017-10-29T15:06:37.943Z,68.00
2017-10-29T15:09:06.227Z,67.31
2017-10-29T15:11:35.177Z,69.59
2017-10-29T15:14:03.472Z,69.60
2017-10-29T15:16:31.786Z,70.58
2017-10-29T15:19:00.085Z,72.19
2017-10-29T15:21:28.352Z,75.37
2017-10-29T15:23:57.159Z,79.11
2017-10-29T15:26:26.340Z,82.50
2017-10-29T15:28:54.647Z,82.95
2017-10-29T15:31:22.936Z,84.22
2017-10-29T15:33:51.228Z,86.66
2017-10-29T15:36:19.505Z,87.20
2017-10-29T15:38:47.793Z,88.71
2017-10-29T15:41:16.072Z,88.89
2017-10-29T15:43:44.388Z,90.29
2017-10-29T15:46:12.676Z,89.18
2017-10-29T15:48:40.960Z,89.00
2017-10-29T15:51:10.010Z,88.43
2017-10-29T15:53:38.309Z,88.51
2017-10-29T15:56:06.616Z,87.91
2017-10-29T15:58:34.922Z,87.33
2017-10-29T16:01:03.276Z,87.16
2017-10-29T16:03:31.627Z,86.51
2017-10-29T16:05:59.949Z,86.73
2017-10-29T16:08:28.230Z,85.85
2017-10-29T16:10:56.601Z,85.89
2017-10-29T16:13:24.937Z,85.67
2017-10-29T16:15:53.220Z,85.27
2017-10-29T16:18:21.553Z,84.18
2017-10-29T16:20:49.930Z,84.81
2017-10-29T16:23:18.253Z,84.32
2017-10-29T16:25:47.407Z,84.38
2017-10-29T16:28:16.374Z,84.91
2017-10-29T16:30:45.652Z,84.07
2017-10-29T16:33:13.994Z,84.44
2017-10-29T16:35:42.366Z,84.25
2017-10-29T16:38:10.668Z,84.37
2017-10-29T16:40:39.841Z,85.01
2017-10-29T16:43:08.364Z,86.12
2017-10-29T16:45:36.982Z,87.22
2017-10-29T16:48:06.138Z,86.81
2017-10-29T16:50:34.772Z,87.94
2017-10-29T16:53:03.720Z,88.04
2017-10-29T16:55:32.174Z,88.37
2017-10-29T16:58:00.879Z,87.20
2017-10-29T17:00:30.251Z,86.90
2017-10-29T17:02:59.556Z,87.89
2017-10-29T17:05:28.881Z,87.18
2017-10-29T17:07:58.224Z,86.99
2017-10-29T17:10:26.737Z,86.71
2017-10-29T17:12:55.138Z,85.79
2017-10-29T17:15:24.534Z,85.15
2017-10-29T17:17:53.116Z,85.07
2017-10-29T17:20:22.223Z,84.31
2017-10-29T17:22:51.409Z,84.09
2017-10-29T17:25:19.741Z,83.89
2017-10-29T17:27:48.071Z,83.85
2017-10-29T17:30:17.164Z,82.84
2017-10-29T17:32:45.474Z,81.77
2017-10-29T17:35:13.767Z,83.90
2017-10-29T17:37:42.048Z,82.73
2017-10-29T17:40:10.337Z,83.16
2017-10-29T17:42:38.620Z,82.51
2017-10-29T17:45:06.906Z,83.17
2017-10-29T17:47:35.294Z,82.42
2017-10-29T17:50:03.713Z,82.97
2017-10-29T17:52:32.963Z,83.33
2017-10-29T17:55:02.001Z,82.15
2017-10-29T17:57:30.909Z,82.58
2017-10-29T18:00:00.184Z,82.51
2017-10-29T18:02:29.462Z,83.42
2017-10-29T18:04:58.983Z,84.07
2017-10-29T18:07:28.580Z,83.54
2017-10-29T18:09:58.129Z,83.77
2017-10-29T18:12:27.878Z,83.16
2017-10-29T18:14:57.627Z,84.29
2017-10-29T18:17:27.294Z,84.17
2017-10-29T18:19:57.023Z,84.24
2017-10-29T18:22:26.764Z,83.42
2017-10-29T18:24:57.414Z,83.62
2017-10-29T18:27:27.223Z,83.19
2017-10-29T18:29:56.974Z,82.86
2017-10-29T18:32:26.769Z,82.89
2017-10-29T18:34:56.519Z,82.16
2017-10-29T18:37:26.227Z,81.72
2017-10-29T18:39:56.084Z,82.28
2017-10-29T18:42:26.057Z,82.26
2017-10-29T18:44:55.988Z,82.25
2017-10-29T18:47:26.565Z,81.95
2017-10-29T18:49:56.292Z,82.02
2017-10-29T18:52:26.134Z,82.57
2017-10-29T18:54:55.965Z,82.23
2017-10-29T18:57:26.260Z,81.91
2017-10-29T18:59:56.050Z,82.24
2017-10-29T19:02:25.881Z,84.17
2017-10-29T19:04:55.786Z,84.29
2017-10-29T19:07:25.565Z,84.68
2017-10-29T19:09:55.319Z,84.57
2017-10-29T19:12:25.162Z,83.78
2017-10-29T19:14:55.751Z,82.67
2017-10-29T19:17:25.556Z,84.02
2017-10-29T19:19:55.374Z,83.69
2017-10-29T19:22:25.133Z,83.33
2017-10-29T19:24:54.841Z,83.39
2017-10-29T19:27:24.589Z,84.01
2017-10-29T19:29:54.331Z,84.06
2017-10-29T19:32:24.105Z,83.68
2017-10-29T19:34:53.899Z,83.43
2017-10-29T19:37:23.730Z,82.91
2017-10-29T19:39:53.472Z,83.01
2017-10-29T19:42:23.388Z,83.34
2017-10-29T19:44:54.130Z,83.33
2017-10-29T19:47:23.938Z,82.86
2017-10-29T19:49:54.530Z,83.70
2017-10-29T19:52:24.935Z,83.05
2017-10-29T19:54:54.836Z,82.91
2017-10-29T19:57:25.141Z,82.55
2017-10-29T19:59:54.940Z,81.57
2017-10-29T20:02:24.847Z,82.53
2017-10-29T20:04:54.828Z,83.43
2017-10-29T20:07:24.519Z,83.43
2017-10-29T20:09:54.373Z,82.31
2017-10-29T20:12:24.311Z,82.23
2017-10-29T20:14:54.201Z,82.82
2017-10-29T20:17:24.073Z,83.16
2017-10-29T20:19:53.884Z,83.74
2017-10-29T20:22:23.694Z,83.47
2017-10-29T20:24:54.988Z,83.41
2017-10-29T20:27:24.816Z,84.01
2017-10-29T20:29:54.729Z,83.71
2017-10-29T20:32:24.642Z,83.21
2017-10-29T20:34:54.427Z,83.97
2017-10-29T20:37:25.145Z,83.22
2017-10-29T20:39:54.963Z,82.30
2017-10-29T20:42:24.826Z,82.13
2017-10-29T20:44:54.690Z,82.44
2017-10-29T20:47:24.606Z,82.56
2017-10-29T20:49:55.172Z,82.14
2017-10-29T20:52:25.020Z,81.81
2017-10-29T20:54:55.813Z,81.97
2017-10-29T20:57:25.502Z,81.35
2017-10-29T20:59:55.193Z,81.08
2017-10-29T21:02:24.965Z,81.25
2017-10-29T21:04:55.562Z,82.08
2017-10-29T21:07:25.375Z,81.83
2017-10-29T21:09:55.180Z,82.44
2017-10-29T21:12:24.779Z,81.99
2017-10-29T21:14:54.483Z,83.17
2017-10-29T21:17:24.268Z,82.76
2017-10-29T21:19:53.706Z,82.89
2017-10-29T21:22:22.790Z,82.96
2017-10-29T21:24:52.017Z,82.00
2017-10-29T21:27:20.366Z,82.01
2017-10-29T21:29:48.770Z,82.31
2017-10-29T21:32:17.946Z,82.40
2017-10-29T21:34:46.265Z,81.80
2017-10-29T21:37:15.336Z,81.44
2017-10-29T21:39:43.683Z,80.71
2017-10-29T21:42:11.985Z,81.19
2017-10-29T21:44:41.081Z,80.89
2017-10-29T21:47:09.402Z,80.72
2017-10-29T21:49:37.797Z,80.71
2017-10-29T21:52:06.075Z,80.55
2017-10-29T21:54:34.360Z,81.09
2017-10-29T21:57:02.652Z,82.25
2017-10-29T21:59:30.940Z,83.86
2017-10-29T22:01:59.220Z,83.99
2017-10-29T22:04:27.516Z,84.14
2017-10-29T22:06:56.561Z,83.50
2017-10-29T22:09:25.879Z,83.44
2017-10-29T22:11:54.156Z,82.33
2017-10-29T22:14:22.436Z,81.94
2017-10-29T22:16:50.717Z,82.76
2017-10-29T22:19:18.997Z,82.38
2017-10-29T22:21:47.273Z,82.74
2017-10-29T22:24:15.565Z,82.21
2017-10-29T22:26:43.849Z,82.41
2017-10-29T22:29:12.905Z,82.62
2017-10-29T22:31:41.185Z,82.10
2017-10-29T22:34:09.488Z,82.34
2017-10-29T22:36:37.764Z,81.91
2017-10-29T22:39:06.056Z,81.61
2017-10-29T22:41:35.120Z,82.04
2017-10-29T22:44:03.413Z,81.24
2017-10-29T22:46:31.701Z,81.17
2017-10-29T22:48:59.989Z,80.96
2017-10-29T22:51:28.276Z,81.12
2017-10-29T22:53:56.555Z,81.16
2017-10-29T22:56:24.837Z,81.29
2017-10-29T22:58:53.250Z,82.22
2017-10-29T23:01:21.519Z,81.87
2017-10-29T23:03:49.819Z,82.03
2017-10-29T23:06:47.647Z,81.64
2017-10-29T23:09:22.698Z,81.88
2017-10-29T23:11:51.001Z,81.64
2017-10-29T23:14:19.284Z,81.13
2017-10-29T23:16:47.680Z,81.16
2017-10-29T23:19:15.986Z,82.04
2017-10-29T23:21:45.036Z,82.07
2017-10-29T23:24:13.332Z,81.90
2017-10-29T23:26:42.580Z,81.93
2017-10-29T23:29:10.860Z,82.64
2017-10-29T23:31:39.137Z,81.93
2017-10-29T23:34:07.436Z,82.69
2017-10-29T23:36:35.727Z,83.16
2017-10-29T23:39:04.001Z,82.81
2017-10-29T23:41:32.275Z,82.86
2017-10-29T23:44:01.324Z,81.79
2017-10-29T23:46:29.613Z,81.84
2017-10-29T23:48:57.900Z,81.83
2017-10-29T23:51:26.229Z,82.07
2017-10-29T23:53:54.516Z,81.25
2017-10-29T23:56:22.790Z,81.40
2017-10-29T23:58:51.828Z,81.28
